Inhapim, Brazil
Current Conditions -  °F | °C
As of 1:00 PM on Thursday 23 Oct 2014 (Local Time) from SBCF Reporting Station
Broken Clouds Broken Clouds  
Wind Chill: 79°   Ceiling: 3500
Heat Index: 79°   Visibility: 6mi
Dew Point: 55°   Wind: 9mph
Humidity: 44%   Direction: 110°ESE
Pressure: 30.18"   Gusts: NA
Location:  19.55°S, 42.12°W
Report Text: SBCF 231500Z 11008KT 9999 BKN035 26/13 Q1022
Loading
Personal Weather Stations






























Interactive Weather Map
Tropical Storm Tracking
New forecast layout! Learn more

10-Day Weather Forecast

Advertisements
Track Severe Weather on mobile